createdAt,value
2022-09-18T00:02:18.723Z,11.89
2022-09-18T00:04:45.278Z,11.92
2022-09-18T00:07:11.733Z,11.89
2022-09-18T00:09:38.541Z,11.87
2022-09-18T00:12:05.076Z,11.87
2022-09-18T00:14:31.568Z,11.87
2022-09-18T00:16:58.127Z,11.85
2022-09-18T00:19:24.634Z,11.85
2022-09-18T00:21:51.695Z,11.95
2022-09-18T00:24:19.114Z,11.91
2022-09-18T00:26:46.876Z,12.00
2022-09-18T00:29:14.654Z,11.99
2022-09-18T00:31:42.172Z,11.95
2022-09-18T00:34:14.312Z,11.92
2022-09-18T00:36:41.547Z,11.96
2022-09-18T00:39:08.702Z,11.98
2022-09-18T00:41:38.839Z,11.87
2022-09-18T00:44:31.868Z,11.89
2022-09-18T00:47:06.745Z,11.87
2022-09-18T00:49:34.432Z,11.85
2022-09-18T00:52:01.658Z,11.99
2022-09-18T00:54:32.909Z,11.92
2022-09-18T00:57:04.218Z,11.91
2022-09-18T00:59:32.893Z,11.87
2022-09-18T01:02:00.094Z,11.87
2022-09-18T01:04:27.715Z,11.89
2022-09-18T01:07:03.816Z,11.85
2022-09-18T01:09:50.598Z,11.78
2022-09-18T01:12:41.339Z,11.79
2022-09-18T01:15:12.603Z,11.78
2022-09-18T01:17:59.940Z,11.83
2022-09-18T01:21:04.006Z,11.81
2022-09-18T01:24:11.951Z,11.80
2022-09-18T01:26:44.323Z,11.75
2022-09-18T01:29:13.655Z,11.78
2022-09-18T01:31:52.957Z,11.78
2022-09-18T01:34:30.461Z,11.78
2022-09-18T01:37:11.431Z,11.81
2022-09-18T01:39:45.118Z,11.76
2022-09-18T01:42:14.847Z,11.74
2022-09-18T01:44:44.252Z,11.67
2022-09-18T01:47:14.803Z,11.74
2022-09-18T01:49:47.899Z,11.73
2022-09-18T01:52:25.948Z,11.80
2022-09-18T01:54:55.461Z,11.75
2022-09-18T01:57:37.390Z,11.77
2022-09-18T02:00:08.115Z,11.93
2022-09-18T02:02:49.385Z,11.73
2022-09-18T02:05:28.295Z,11.73
2022-09-18T02:08:11.299Z,11.68
2022-09-18T02:10:48.363Z,11.67
2022-09-18T02:13:21.916Z,11.68
2022-09-18T02:15:49.532Z,11.68
2022-09-18T02:18:25.648Z,11.70
2022-09-18T02:20:53.456Z,11.70
2022-09-18T02:23:20.601Z,11.78
2022-09-18T02:25:53.294Z,11.76
2022-09-18T02:28:23.063Z,11.75
2022-09-18T02:30:49.576Z,11.77
2022-09-18T02:33:34.122Z,11.80
2022-09-18T02:36:19.787Z,11.78
2022-09-18T02:39:18.896Z,11.70
2022-09-18T02:42:12.952Z,11.68
2022-09-18T02:45:08.869Z,11.71
2022-09-18T02:48:23.536Z,11.69
2022-09-18T02:51:02.164Z,11.70
2022-09-18T02:53:51.259Z,11.71
2022-09-18T02:56:36.421Z,11.70
2022-09-18T02:59:07.222Z,11.67
2022-09-18T03:01:35.554Z,11.60
2022-09-18T03:04:05.322Z,11.59
2022-09-18T03:06:44.859Z,11.57
2022-09-18T03:09:11.837Z,11.56
2022-09-18T03:11:38.348Z,11.54
2022-09-18T03:14:05.112Z,11.51
2022-09-18T03:16:31.652Z,11.57
2022-09-18T03:18:59.461Z,11.55
2022-09-18T03:21:27.496Z,11.55
2022-09-18T03:23:54.250Z,11.55
2022-09-18T03:26:26.431Z,11.56
2022-09-18T03:28:53.679Z,11.57
2022-09-18T03:31:20.583Z,11.58
2022-09-18T03:33:47.092Z,11.55
2022-09-18T03:36:13.875Z,11.57
2022-09-18T03:38:41.616Z,11.54
2022-09-18T03:41:08.521Z,11.54
2022-09-18T03:43:38.179Z,11.55
2022-09-18T03:46:05.443Z,11.54
2022-09-18T03:48:32.621Z,11.58
2022-09-18T03:50:59.129Z,11.60
2022-09-18T03:53:26.044Z,11.59
2022-09-18T03:56:11.890Z,11.58
2022-09-18T03:58:59.055Z,11.57
2022-09-18T04:01:44.151Z,11.59
2022-09-18T04:04:30.611Z,11.55
2022-09-18T04:07:15.795Z,11.52
2022-09-18T04:10:14.354Z,11.55
2022-09-18T04:12:44.187Z,11.55
2022-09-18T04:15:19.210Z,11.56
2022-09-18T04:17:47.186Z,11.55
2022-09-18T04:20:14.051Z,11.54
2022-09-18T04:22:41.917Z,11.54
2022-09-18T04:25:08.756Z,11.55
2022-09-18T04:27:36.223Z,11.54
2022-09-18T04:30:03.556Z,11.55
2022-09-18T04:32:31.303Z,11.57
2022-09-18T04:34:57.808Z,11.55
2022-09-18T04:37:25.915Z,11.51
2022-09-18T04:39:53.217Z,11.56
2022-09-18T04:42:21.205Z,11.54
2022-09-18T04:44:47.942Z,11.52
2022-09-18T04:47:15.050Z,11.49
2022-09-18T04:49:41.652Z,11.45
2022-09-18T04:52:08.337Z,11.45
2022-09-18T04:54:34.811Z,11.40
2022-09-18T04:57:01.596Z,11.36
2022-09-18T04:59:28.303Z,11.40
2022-09-18T05:01:57.178Z,11.40
2022-09-18T05:04:23.696Z,11.36
2022-09-18T05:06:57.291Z,11.36
2022-09-18T05:09:23.894Z,11.38
2022-09-18T05:11:50.401Z,11.36
2022-09-18T05:14:17.684Z,11.35
2022-09-18T05:16:47.527Z,11.37
2022-09-18T05:19:27.995Z,11.38
2022-09-18T05:22:01.221Z,11.34
2022-09-18T05:24:27.773Z,11.34
2022-09-18T05:26:54.314Z,11.36
2022-09-18T05:29:22.020Z,11.36
2022-09-18T05:31:50.697Z,11.37
2022-09-18T05:34:17.355Z,11.37
2022-09-18T05:36:45.847Z,11.38
2022-09-18T05:39:17.287Z,11.38
2022-09-18T05:41:44.229Z,11.34
2022-09-18T05:44:12.377Z,11.36
2022-09-18T05:46:38.909Z,11.36
2022-09-18T05:49:06.601Z,11.33
2022-09-18T05:51:33.190Z,11.38
2022-09-18T05:53:59.862Z,11.39
2022-09-18T05:56:44.991Z,11.39
2022-09-18T05:59:11.830Z,11.40
2022-09-18T06:01:40.797Z,11.43
2022-09-18T06:04:17.830Z,11.42
2022-09-18T06:06:50.739Z,11.45
2022-09-18T06:09:17.243Z,11.46
2022-09-18T06:11:43.707Z,11.45
2022-09-18T06:14:10.211Z,11.47
2022-09-18T06:16:41.968Z,11.52
2022-09-18T06:19:09.955Z,11.53
2022-09-18T06:21:36.651Z,11.52
2022-09-18T06:24:05.296Z,11.55
2022-09-18T06:26:38.043Z,11.59
2022-09-18T06:29:06.053Z,11.63
2022-09-18T06:31:40.146Z,11.61
2022-09-18T06:34:10.043Z,11.59
2022-09-18T06:36:36.620Z,11.53
2022-09-18T06:39:18.832Z,11.63
2022-09-18T06:41:49.575Z,11.68
2022-09-18T06:44:23.437Z,11.62
2022-09-18T06:47:00.992Z,11.65
2022-09-18T06:49:35.076Z,11.64
2022-09-18T06:52:03.304Z,11.60
2022-09-18T06:54:31.361Z,11.66
2022-09-18T06:56:57.988Z,11.59
2022-09-18T06:59:24.619Z,11.60
2022-09-18T07:01:51.799Z,11.61
2022-09-18T07:04:31.151Z,11.62
2022-09-18T07:06:59.202Z,11.62
2022-09-18T07:09:27.224Z,11.63
2022-09-18T07:11:53.750Z,11.67
2022-09-18T07:14:26.555Z,11.68
2022-09-18T07:16:57.115Z,11.63
2022-09-18T07:19:23.832Z,11.67
2022-09-18T07:21:52.505Z,11.67
2022-09-18T07:24:19.558Z,11.70
2022-09-18T07:26:46.072Z,11.70
2022-09-18T07:29:12.710Z,11.68
2022-09-18T07:31:39.927Z,11.73
2022-09-18T07:34:09.281Z,11.76
2022-09-18T07:36:35.798Z,11.77
2022-09-18T07:39:03.358Z,11.76
2022-09-18T07:41:39.265Z,11.80
2022-09-18T07:44:06.307Z,11.83
2022-09-18T07:46:34.859Z,11.87
2022-09-18T07:49:03.971Z,11.90
2022-09-18T07:51:30.459Z,11.93
2022-09-18T07:53:58.700Z,11.99
2022-09-18T07:56:46.724Z,12.04
2022-09-18T07:59:16.084Z,12.12
2022-09-18T08:01:42.841Z,12.15
2022-09-18T08:04:10.709Z,12.16
2022-09-18T08:06:57.972Z,12.19
2022-09-18T08:09:35.762Z,12.16
2022-09-18T08:12:22.602Z,12.16
2022-09-18T08:15:09.878Z,12.10
2022-09-18T08:18:04.503Z,12.11
2022-09-18T08:20:58.146Z,12.11
2022-09-18T08:23:30.011Z,12.16
2022-09-18T08:26:00.584Z,12.15
2022-09-18T08:28:27.068Z,12.21
2022-09-18T08:30:58.104Z,12.28
2022-09-18T08:33:25.151Z,12.31
2022-09-18T08:35:51.935Z,12.35
2022-09-18T08:38:23.343Z,12.38
2022-09-18T08:41:38.271Z,12.40
2022-09-18T08:44:11.310Z,12.47
2022-09-18T08:46:43.241Z,12.49
2022-09-18T08:49:20.580Z,12.55
2022-09-18T08:52:04.491Z,12.56
2022-09-18T08:54:57.545Z,12.56
2022-09-18T08:58:19.093Z,12.61
2022-09-18T09:00:56.519Z,12.63
2022-09-18T09:03:42.081Z,12.67
2022-09-18T09:07:03.115Z,12.70
2022-09-18T09:09:49.457Z,12.74
2022-09-18T09:12:45.750Z,12.77
2022-09-18T09:15:19.444Z,12.76
2022-09-18T09:18:03.767Z,12.80
2022-09-18T09:20:56.788Z,12.78
2022-09-18T09:23:42.151Z,12.80
2022-09-18T09:26:22.913Z,12.77
2022-09-18T09:29:03.215Z,12.75
2022-09-18T09:31:52.961Z,12.75
2022-09-18T09:35:10.816Z,12.76
2022-09-18T09:37:48.096Z,12.77
2022-09-18T09:40:20.633Z,12.77
2022-09-18T09:42:56.199Z,12.70
2022-09-18T09:45:30.390Z,12.66
2022-09-18T09:48:10.461Z,12.64
2022-09-18T09:51:04.318Z,12.66
2022-09-18T09:53:31.080Z,12.60
2022-09-18T09:56:07.131Z,12.63
2022-09-18T09:58:48.977Z,12.63
2022-09-18T10:01:33.180Z,12.61
2022-09-18T10:04:08.992Z,12.66
2022-09-18T10:07:02.139Z,12.69
2022-09-18T10:09:41.760Z,12.72
2022-09-18T10:12:36.201Z,12.76
2022-09-18T10:15:19.399Z,12.77
2022-09-18T10:17:51.073Z,12.79
2022-09-18T10:20:25.290Z,12.84
2022-09-18T10:22:58.299Z,12.92
2022-09-18T10:25:41.045Z,12.98
2022-09-18T10:28:13.877Z,13.02
2022-09-18T10:31:01.450Z,13.07
2022-09-18T10:33:31.871Z,13.09
2022-09-18T10:36:11.348Z,13.17
2022-09-18T10:38:39.131Z,13.17
2022-09-18T10:41:37.907Z,13.18
2022-09-18T10:44:24.588Z,13.20
2022-09-18T10:47:16.572Z,13.18
2022-09-18T10:50:13.152Z,13.11
2022-09-18T10:52:46.736Z,12.85
2022-09-18T10:55:25.212Z,12.74
2022-09-18T10:58:15.456Z,12.73
2022-09-18T11:00:56.274Z,12.62
2022-09-18T11:03:37.495Z,12.62
2022-09-18T11:06:14.327Z,12.62
2022-09-18T11:08:46.437Z,12.60
2022-09-18T11:11:37.059Z,12.65
2022-09-18T11:14:23.528Z,12.70
2022-09-18T11:16:58.924Z,12.69
2022-09-18T11:19:28.352Z,12.68
2022-09-18T11:21:59.890Z,12.70
2022-09-18T11:24:31.912Z,12.70
2022-09-18T11:27:20.392Z,12.71
2022-09-18T11:29:47.143Z,12.70
2022-09-18T11:32:26.662Z,12.71
2022-09-18T11:35:02.368Z,12.72
2022-09-18T11:37:43.848Z,12.79
2022-09-18T11:40:19.873Z,12.80
2022-09-18T11:42:49.619Z,12.75
2022-09-18T11:45:20.415Z,12.68
2022-09-18T11:47:54.266Z,12.64
2022-09-18T11:50:26.011Z,12.62
2022-09-18T11:53:04.314Z,12.63
2022-09-18T11:55:33.782Z,12.62
2022-09-18T11:58:22.905Z,12.61
2022-09-18T12:00:59.064Z,12.59
2022-09-18T12:03:36.873Z,12.49
2022-09-18T12:06:12.658Z,12.59
2022-09-18T12:09:14.811Z,12.63
2022-09-18T12:12:09.216Z,12.58
2022-09-18T12:14:47.967Z,12.54
2022-09-18T12:17:43.355Z,12.55
2022-09-18T12:20:40.276Z,12.55
2022-09-18T12:23:15.664Z,12.53
2022-09-18T12:26:23.247Z,12.54
2022-09-18T12:29:36.959Z,12.54
2022-09-18T12:32:28.485Z,12.46
2022-09-18T12:35:17.659Z,12.43
2022-09-18T12:38:02.726Z,12.46
2022-09-18T12:40:56.148Z,12.46
2022-09-18T12:43:44.674Z,12.47
2022-09-18T12:46:27.390Z,12.46
2022-09-18T12:49:28.111Z,12.48
2022-09-18T12:52:01.550Z,12.40
2022-09-18T12:54:37.083Z,12.42
2022-09-18T12:57:31.892Z,12.43
2022-09-18T13:00:10.447Z,12.39
2022-09-18T13:02:58.722Z,12.40
2022-09-18T13:05:25.189Z,12.34
2022-09-18T13:07:55.001Z,12.33
2022-09-18T13:10:43.273Z,12.33
2022-09-18T13:13:24.728Z,12.31
2022-09-18T13:15:56.807Z,12.25
2022-09-18T13:18:33.718Z,12.17
2022-09-18T13:21:05.575Z,12.18
2022-09-18T13:23:37.142Z,12.31
2022-09-18T13:26:10.716Z,12.19
2022-09-18T13:28:41.279Z,12.16
2022-09-18T13:31:32.783Z,12.20
2022-09-18T13:34:06.679Z,12.20
2022-09-18T13:36:37.957Z,12.15
2022-09-18T13:39:14.726Z,12.17
2022-09-18T13:42:01.616Z,12.22
2022-09-18T13:44:34.223Z,12.26
2022-09-18T13:47:12.972Z,12.23
2022-09-18T13:49:50.483Z,12.24
2022-09-18T13:52:35.178Z,12.29
2022-09-18T13:55:13.688Z,12.26
2022-09-18T13:57:42.040Z,12.28
2022-09-18T14:00:20.594Z,12.32
2022-09-18T14:02:50.948Z,12.26
2022-09-18T14:05:30.240Z,12.24
2022-09-18T14:07:58.324Z,12.23
2022-09-18T14:10:31.347Z,12.23
2022-09-18T14:13:37.240Z,12.23
2022-09-18T14:16:09.138Z,12.21
2022-09-18T14:18:38.497Z,12.23
2022-09-18T14:21:17.063Z,12.18
2022-09-18T14:23:46.414Z,12.04
2022-09-18T14:26:28.111Z,12.04
2022-09-18T14:29:00.311Z,11.95
2022-09-18T14:31:29.645Z,11.90
2022-09-18T14:34:03.417Z,11.88
2022-09-18T14:36:43.548Z,11.88
2022-09-18T14:39:42.222Z,11.93
2022-09-18T14:42:20.165Z,11.91
2022-09-18T14:44:53.595Z,11.96
2022-09-18T14:47:22.810Z,12.00
2022-09-18T14:49:49.496Z,12.00
2022-09-18T14:52:21.250Z,12.07
2022-09-18T14:54:48.315Z,12.20
2022-09-18T14:57:17.910Z,12.10
2022-09-18T14:59:48.645Z,12.11
2022-09-18T15:02:27.402Z,12.10
2022-09-18T15:04:53.908Z,12.10
2022-09-18T15:07:23.169Z,12.08
2022-09-18T15:09:55.546Z,12.12
2022-09-18T15:12:25.134Z,12.12
2022-09-18T15:14:51.990Z,12.14
2022-09-18T15:17:28.297Z,12.11
2022-09-18T15:20:17.006Z,12.11
2022-09-18T15:22:43.488Z,12.08
2022-09-18T15:25:14.572Z,12.08
2022-09-18T15:27:42.839Z,12.03
2022-09-18T15:30:19.505Z,12.02
2022-09-18T15:32:49.729Z,12.00
2022-09-18T15:35:21.658Z,12.03
2022-09-18T15:38:02.817Z,12.08
2022-09-18T15:40:33.659Z,12.09
2022-09-18T15:43:03.523Z,12.04
2022-09-18T15:45:32.365Z,12.04
2022-09-18T15:48:00.928Z,12.04
2022-09-18T15:50:39.533Z,12.04
2022-09-18T15:53:21.004Z,12.08
2022-09-18T15:55:57.092Z,12.09
2022-09-18T15:58:28.248Z,12.06
2022-09-18T16:00:58.463Z,12.09
2022-09-18T16:03:28.046Z,12.04
2022-09-18T16:05:57.657Z,12.03
2022-09-18T16:08:29.590Z,12.07
2022-09-18T16:10:59.483Z,12.03
2022-09-18T16:13:25.884Z,12.04
2022-09-18T16:16:07.615Z,12.01
2022-09-18T16:18:47.337Z,12.03
2022-09-18T16:21:13.962Z,11.98
2022-09-18T16:23:48.507Z,12.04
2022-09-18T16:26:24.478Z,11.97
2022-09-18T16:28:55.496Z,11.99
2022-09-18T16:31:24.983Z,12.00
2022-09-18T16:33:57.238Z,12.03
2022-09-18T16:36:38.676Z,12.07
2022-09-18T16:39:16.150Z,12.05
2022-09-18T16:41:43.522Z,11.99
2022-09-18T16:44:12.770Z,11.97
2022-09-18T16:46:45.405Z,11.93
2022-09-18T16:49:14.614Z,11.89
2022-09-18T16:51:41.157Z,11.89
2022-09-18T16:54:07.666Z,11.83
2022-09-18T16:56:56.358Z,11.87
2022-09-18T16:59:27.295Z,11.79
2022-09-18T17:02:03.829Z,11.75
2022-09-18T17:04:31.328Z,11.72
2022-09-18T17:06:57.901Z,11.68
2022-09-18T17:09:24.796Z,11.66
2022-09-18T17:11:52.280Z,11.65
2022-09-18T17:14:19.236Z,11.65
2022-09-18T17:16:46.041Z,11.65
2022-09-18T17:19:12.681Z,11.60
2022-09-18T17:21:39.255Z,11.65
2022-09-18T17:24:06.212Z,11.55
2022-09-18T17:26:34.976Z,11.57
2022-09-18T17:29:01.551Z,11.55
2022-09-18T17:31:28.262Z,11.57
2022-09-18T17:33:55.294Z,11.58
2022-09-18T17:36:21.938Z,11.60
2022-09-18T17:38:49.009Z,11.54
2022-09-18T17:41:18.159Z,11.46
2022-09-18T17:43:45.244Z,11.47
2022-09-18T17:46:13.235Z,11.39
2022-09-18T17:48:39.807Z,11.41
2022-09-18T17:51:12.752Z,11.38
2022-09-18T17:53:40.872Z,11.43
2022-09-18T17:56:11.872Z,11.36
2022-09-18T17:58:40.923Z,11.34
2022-09-18T18:01:13.677Z,11.28
2022-09-18T18:03:41.070Z,11.25
2022-09-18T18:06:08.362Z,11.19
2022-09-18T18:08:34.827Z,11.17
2022-09-18T18:11:13.361Z,11.23
2022-09-18T18:13:42.091Z,11.23
2022-09-18T18:16:14.522Z,11.20
2022-09-18T18:18:42.396Z,11.20
2022-09-18T18:21:09.785Z,11.14
2022-09-18T18:23:39.702Z,11.12
2022-09-18T18:26:09.104Z,11.13
2022-09-18T18:28:37.418Z,11.10
2022-09-18T18:31:07.321Z,11.11
2022-09-18T18:33:35.382Z,11.05
2022-09-18T18:36:15.172Z,10.97
2022-09-18T18:38:43.836Z,10.94
2022-09-18T18:41:12.078Z,10.89
2022-09-18T18:43:42.370Z,10.96
2022-09-18T18:46:12.689Z,10.92
2022-09-18T18:48:43.656Z,10.92
2022-09-18T18:51:15.377Z,10.86
2022-09-18T18:53:43.803Z,10.81
2022-09-18T18:56:13.281Z,10.75
2022-09-18T18:58:40.684Z,10.77
2022-09-18T19:01:17.873Z,10.76
2022-09-18T19:03:53.008Z,10.76
2022-09-18T19:06:20.512Z,10.80
2022-09-18T19:08:47.751Z,10.69
2022-09-18T19:11:17.040Z,10.66
2022-09-18T19:13:44.545Z,10.60
2022-09-18T19:16:12.231Z,10.58
2022-09-18T19:18:39.535Z,10.60
2022-09-18T19:21:07.294Z,10.57
2022-09-18T19:23:34.944Z,10.54
2022-09-18T19:26:02.468Z,10.45
2022-09-18T19:28:30.146Z,10.48
2022-09-18T19:31:05.729Z,10.41
2022-09-18T19:33:33.138Z,10.36
2022-09-18T19:36:06.627Z,10.37
2022-09-18T19:38:36.760Z,10.37
2022-09-18T19:41:20.052Z,10.38
2022-09-18T19:43:46.865Z,10.31
2022-09-18T19:46:19.804Z,10.33
2022-09-18T19:48:46.336Z,10.33
2022-09-18T19:51:12.804Z,10.24
2022-09-18T19:53:39.240Z,10.27
2022-09-18T19:56:22.554Z,10.25
2022-09-18T19:58:51.128Z,10.33
2022-09-18T20:01:17.981Z,10.25
2022-09-18T20:03:44.488Z,10.23
2022-09-18T20:06:12.008Z,10.19
2022-09-18T20:08:38.446Z,10.18
2022-09-18T20:11:05.003Z,10.14
2022-09-18T20:13:31.465Z,10.11
2022-09-18T20:16:09.909Z,10.10
2022-09-18T20:18:37.735Z,10.09
2022-09-18T20:21:09.164Z,10.08
2022-09-18T20:23:36.295Z,10.06
2022-09-18T20:26:07.515Z,10.10
2022-09-18T20:28:35.711Z,10.13
2022-09-18T20:31:04.152Z,10.10
2022-09-18T20:33:30.894Z,10.06
2022-09-18T20:35:58.927Z,10.03
2022-09-18T20:38:30.515Z,9.99
2022-09-18T20:41:09.396Z,10.11
2022-09-18T20:43:38.584Z,10.05
2022-09-18T20:46:06.559Z,9.98
2022-09-18T20:48:41.218Z,10.06
2022-09-18T20:51:12.005Z,10.07
2022-09-18T20:53:40.648Z,10.02
2022-09-18T20:56:08.332Z,10.00
2022-09-18T20:58:35.954Z,9.98
2022-09-18T21:01:18.077Z,10.02
2022-09-18T21:03:46.398Z,9.97
2022-09-18T21:06:23.548Z,9.95
2022-09-18T21:08:53.389Z,9.92
2022-09-18T21:11:29.627Z,9.96
2022-09-18T21:13:59.027Z,9.91
2022-09-18T21:16:27.643Z,9.87
2022-09-18T21:18:56.632Z,9.84
2022-09-18T21:21:24.695Z,9.84
2022-09-18T21:23:54.155Z,9.86
2022-09-18T21:26:21.831Z,9.87
2022-09-18T21:28:57.540Z,9.87
2022-09-18T21:31:24.546Z,9.88
2022-09-18T21:33:52.935Z,9.84
2022-09-18T21:36:24.452Z,9.87
2022-09-18T21:38:53.430Z,9.84
2022-09-18T21:41:21.811Z,9.80
2022-09-18T21:43:50.329Z,9.78
2022-09-18T21:46:19.293Z,9.79
2022-09-18T21:48:47.468Z,9.72
2022-09-18T21:51:16.371Z,9.73
2022-09-18T21:53:43.764Z,9.71
2022-09-18T21:56:15.971Z,9.67
2022-09-18T21:58:45.095Z,9.66
2022-09-18T22:01:20.242Z,9.76
2022-09-18T22:03:53.455Z,9.72
2022-09-18T22:06:22.006Z,9.71
2022-09-18T22:08:50.346Z,9.66
2022-09-18T22:11:38.703Z,9.73
2022-09-18T22:14:08.461Z,9.67
2022-09-18T22:16:36.070Z,9.64
2022-09-18T22:19:06.097Z,9.65
2022-09-18T22:21:35.077Z,9.74
2022-09-18T22:24:06.312Z,9.71
2022-09-18T22:26:41.059Z,9.76
2022-09-18T22:29:13.151Z,9.69
2022-09-18T22:31:39.741Z,9.67
2022-09-18T22:34:06.686Z,9.63
2022-09-18T22:36:33.658Z,9.65
2022-09-18T22:39:00.101Z,9.69
2022-09-18T22:41:26.588Z,9.61
2022-09-18T22:43:55.085Z,9.58
2022-09-18T22:46:23.143Z,9.56
2022-09-18T22:48:49.750Z,9.54
2022-09-18T22:51:24.215Z,9.55
2022-09-18T22:53:59.543Z,9.56
2022-09-18T22:56:27.773Z,9.49
2022-09-18T22:58:55.685Z,9.49
2022-09-18T23:01:23.601Z,9.44
2022-09-18T23:03:52.743Z,9.42
2022-09-18T23:06:22.606Z,9.50
2022-09-18T23:08:51.998Z,9.49
2022-09-18T23:11:21.916Z,9.45
2022-09-18T23:13:51.354Z,9.48
2022-09-18T23:16:18.585Z,9.49
2022-09-18T23:18:54.179Z,9.53
2022-09-18T23:21:22.501Z,9.47
2022-09-18T23:23:49.976Z,9.46
2022-09-18T23:26:25.359Z,9.46
2022-09-18T23:28:53.758Z,9.37
2022-09-18T23:31:26.569Z,9.37
2022-09-18T23:33:55.371Z,9.36
2022-09-18T23:36:26.508Z,9.32
2022-09-18T23:38:58.208Z,9.34
2022-09-18T23:41:26.007Z,9.35
2022-09-18T23:43:54.071Z,9.32
2022-09-18T23:46:22.588Z,9.30
2022-09-18T23:48:54.779Z,9.29
2022-09-18T23:51:29.489Z,9.33
2022-09-18T23:53:57.975Z,9.33
2022-09-18T23:56:24.683Z,9.23
2022-09-18T23:58:59.444Z,9.33
